Time;durP1;ratioP1;P1;durP2;ratioP2;P2;SDS_P1;SDS_P2;PMS_P1;PMS_P2;Temp;Humidity;BMP_temperature;BMP_pressure;BME280_temperature;BME280_humidity;BME280_pressure;Samples;Min_cycle;Max_cycle;Signal;HPM_P1;HPM_P2
2023/02/06 00:01:38;;;;;;;14.50;11.40;;;;;;;1.94;62.37;102502.58;106230;1269;1003685;-51
2023/02/06 00:04:07;;;;;;;13.20;10.60;;;;;;;1.91;62.72;102499.91;106953;1274;24221;-50
2023/02/06 00:06:41;;;;;;;13.80;10.10;;;;;;;1.92;62.53;102505.91;105769;1275;1003696;-50
2023/02/06 00:09:09;;;;;;;12.80;10.00;;;;;;;1.91;62.51;102502.97;105959;1269;1002849;-50
2023/02/06 00:11:41;;;;;;;13.10;10.20;;;;;;;1.90;62.65;102504.98;106654;1270;25344;-50
2023/02/06 00:14:09;;;;;;;14.60;11.80;;;;;;;1.88;62.53;102509.37;106640;1269;25341;-50
2023/02/06 00:16:59;;;;;;;14.50;10.90;;;;;;;1.86;62.36;102515.45;106673;1273;22534;-50
2023/02/06 00:19:28;;;;;;;15.50;10.90;;;;;;;1.84;62.21;102510.88;106751;1273;25322;-49
2023/02/06 00:21:57;;;;;;;13.70;11.10;;;;;;;1.81;62.19;102509.22;106899;1270;22637;-50
2023/02/06 00:24:25;;;;;;;14.30;10.90;;;;;;;1.77;62.22;102505.46;107024;1268;25272;-50
2023/02/06 00:26:54;;;;;;;15.80;11.70;;;;;;;1.74;62.41;102504.81;107065;1270;25321;-50
2023/02/06 00:29:24;;;;;;;16.00;12.10;;;;;;;1.70;62.23;102503.61;106842;1273;22553;-50
2023/02/06 00:31:53;;;;;;;16.00;11.90;;;;;;;1.66;62.06;102507.06;106780;1254;22540;-51
2023/02/06 00:34:21;;;;;;;14.20;11.40;;;;;;;1.62;62.34;102505.71;106193;1275;1002828;-50
2023/02/06 00:36:50;;;;;;;15.70;11.60;;;;;;;1.59;62.29;102502.35;106865;1274;24381;-50
2023/02/06 00:39:19;;;;;;;14.40;11.50;;;;;;;1.58;62.14;102506.40;105975;1274;1003010;-50
2023/02/06 00:41:49;;;;;;;14.70;11.80;;;;;;;1.55;62.40;102510.56;106712;1268;25780;-52
2023/02/06 00:44:17;;;;;;;17.50;13.00;;;;;;;1.55;62.42;102511.56;106239;1268;1002851;-50
2023/02/06 00:46:46;;;;;;;16.50;11.90;;;;;;;1.55;62.33;102509.16;106802;1272;25346;-50
2023/02/06 00:49:15;;;;;;;16.20;12.10;;;;;;;1.54;62.14;102506.91;106867;1276;25332;-50
2023/02/06 00:51:43;;;;;;;16.50;12.70;;;;;;;1.53;62.23;102511.98;106862;1270;25457;-49
2023/02/06 00:54:12;;;;;;;15.80;12.20;;;;;;;1.52;62.36;102512.15;106070;1275;1003038;-52
2023/02/06 00:56:43;;;;;;;17.90;12.60;;;;;;;1.52;62.42;102508.55;106089;1270;1002884;-52
2023/02/06 00:59:14;;;;;;;16.50;12.30;;;;;;;1.53;62.51;102510.10;106872;1270;23866;-51
2023/02/06 01:01:43;;;;;;;18.10;12.80;;;;;;;1.54;62.61;102507.24;106693;1270;25346;-50
2023/02/06 01:04:12;;;;;;;18.10;13.70;;;;;;;1.55;62.66;102501.29;106694;1274;25363;-52
2023/02/06 01:07:00;;;;;;;19.20;13.20;;;;;;;1.55;62.53;102505.94;105767;1271;1002992;-51
2023/02/06 01:09:31;;;;;;;18.20;13.40;;;;;;;1.56;62.44;102505.27;106704;1261;25355;-50
2023/02/06 01:11:59;;;;;;;17.30;12.80;;;;;;;1.58;62.63;102506.91;106838;1270;26496;-51
2023/02/06 01:14:28;;;;;;;14.70;11.80;;;;;;;1.60;62.60;102502.38;106785;1272;22630;-51
2023/02/06 01:16:57;;;;;;;17.70;12.30;;;;;;;1.61;62.41;102503.59;106126;1276;1003591;-51
2023/02/06 01:19:26;;;;;;;17.10;12.60;;;;;;;1.61;62.62;102501.57;106152;1269;1003244;-51
2023/02/06 01:21:55;;;;;;;16.80;12.50;;;;;;;1.63;62.58;102497.35;106844;1271;25315;-51
2023/02/06 01:24:24;;;;;;;17.70;13.20;;;;;;;1.63;62.43;102498.41;106879;1268;24334;-51
2023/02/06 01:26:52;;;;;;;17.90;13.60;;;;;;;1.64;62.54;102498.81;106090;1275;1003258;-51
2023/02/06 01:29:20;;;;;;;18.20;13.30;;;;;;;1.67;62.66;102503.02;106892;1273;25308;-51
2023/02/06 01:31:49;;;;;;;16.80;13.60;;;;;;;1.69;62.70;102501.70;106909;1269;25403;-51
2023/02/06 01:34:18;;;;;;;17.80;13.70;;;;;;;1.71;62.67;102502.27;106873;1268;25306;-51
2023/02/06 01:36:47;;;;;;;17.60;12.90;;;;;;;1.73;62.88;102506.65;106855;1268;25553;-51
2023/02/06 01:39:16;;;;;;;17.70;13.20;;;;;;;1.73;62.79;102502.23;106721;1269;25317;-51
2023/02/06 01:41:45;;;;;;;20.60;14.70;;;;;;;1.75;62.87;102506.59;106745;1276;23243;-51
2023/02/06 01:44:21;;;;;;;18.40;14.50;;;;;;;1.76;62.70;102505.08;106848;1276;22648;-51
2023/02/06 01:46:52;;;;;;;19.40;14.10;;;;;;;1.79;62.75;102507.58;106915;1270;22539;-51
2023/02/06 01:49:26;;;;;;;18.90;14.50;;;;;;;1.80;62.83;102506.63;106957;1273;22545;-51
2023/02/06 01:52:03;;;;;;;21.30;14.70;;;;;;;1.83;63.10;102507.27;106825;1276;22551;-49
2023/02/06 01:54:31;;;;;;;18.70;14.00;;;;;;;1.86;63.08;102507.04;106040;1276;1003643;-51
2023/02/06 01:57:02;;;;;;;19.30;14.50;;;;;;;1.89;62.95;102504.59;106915;1274;22540;-51
2023/02/06 01:59:31;;;;;;;16.50;13.70;;;;;;;1.91;62.49;102505.71;106091;1270;1003535;-51
2023/02/06 02:05:24;;;;;;;18.70;13.80;;;;;;;1.95;62.49;102502.88;103639;1291;544922;-51
2023/02/06 02:07:59;;;;;;;18.30;12.70;;;;;;;1.96;62.54;102504.55;106401;1279;22534;-53
2023/02/06 02:10:29;;;;;;;18.00;13.30;;;;;;;1.98;62.38;102505.49;106777;1272;25333;-51
2023/02/06 02:12:58;;;;;;;16.20;12.90;;;;;;;1.98;62.35;102509.62;106545;1278;25483;-51
2023/02/06 02:16:01;;;;;;;17.50;12.90;;;;;;;1.98;62.65;102509.11;105771;1276;1002142;-50
2023/02/06 02:18:45;;;;;;;17.00;13.20;;;;;;;1.99;62.47;102514.27;106195;1278;221759;-50
2023/02/06 02:21:32;;;;;;;17.40;13.20;;;;;;;2.01;62.70;102512.97;106381;1277;25383;-50
2023/02/06 02:24:26;;;;;;;18.50;13.00;;;;;;;2.03;62.56;102515.64;106437;1276;25427;-49
2023/02/06 02:27:13;;;;;;;17.00;13.20;;;;;;;2.06;62.70;102518.48;106486;1275;25322;-51
2023/02/06 02:29:42;;;;;;;17.90;12.70;;;;;;;2.07;62.80;102520.09;106255;1277;24372;-50
2023/02/06 02:32:19;;;;;;;17.50;13.60;;;;;;;2.09;62.67;102518.62;106134;1274;22542;-51
2023/02/06 02:34:57;;;;;;;17.60;12.70;;;;;;;2.10;62.35;102518.15;106265;1274;26719;-50
2023/02/06 02:37:53;;;;;;;17.60;13.50;;;;;;;2.10;62.34;102515.57;106292;1278;25523;-51
2023/02/06 02:40:28;;;;;;;18.30;12.90;;;;;;;2.08;61.94;102516.86;105743;1276;1003494;-51
2023/02/06 02:43:26;;;;;;;16.90;12.30;;;;;;;2.06;61.89;102523.95;106458;1275;25316;-51
2023/02/06 02:46:16;;;;;;;16.70;12.60;;;;;;;2.05;61.96;102524.27;106478;1276;25318;-50
2023/02/06 02:48:45;;;;;;;17.60;13.30;;;;;;;2.04;61.60;102520.11;105714;1275;1003558;-50
2023/02/06 02:51:15;;;;;;;19.20;13.00;;;;;;;2.02;61.72;102518.48;105599;1281;1002979;-50
2023/02/06 02:53:44;;;;;;;15.10;12.40;;;;;;;2.01;61.77;102516.94;105542;1275;1003793;-50
2023/02/06 02:56:15;;;;;;;16.50;12.00;;;;;;;2.01;61.68;102520.35;106904;1270;25312;-50
2023/02/06 02:58:45;;;;;;;17.60;12.40;;;;;;;2.00;61.64;102520.98;106212;1270;1003643;-50
2023/02/06 03:01:16;;;;;;;17.30;12.50;;;;;;;1.98;61.44;102519.88;106606;1269;25446;-50
2023/02/06 03:03:46;;;;;;;16.70;12.50;;;;;;;1.97;61.11;102524.95;106990;1272;24029;-52
2023/02/06 03:06:37;;;;;;;15.70;11.80;;;;;;;1.96;61.38;102520.81;106580;1269;25332;-52
2023/02/06 03:09:37;;;;;;;15.30;11.90;;;;;;;1.95;61.60;102527.10;106781;1272;22526;-50
2023/02/06 03:12:45;;;;;;;15.70;11.90;;;;;;;1.93;61.36;102527.03;106186;1273;1003546;-51
2023/02/06 03:15:24;;;;;;;15.40;11.30;;;;;;;1.91;60.70;102532.41;106996;1269;25337;-51
2023/02/06 03:18:11;;;;;;;14.40;11.00;;;;;;;1.90;61.00;102535.44;106869;1269;25357;-49
2023/02/06 03:20:42;;;;;;;13.90;10.60;;;;;;;1.90;60.58;102535.27;106159;1269;1003090;-49
2023/02/06 03:23:19;;;;;;;15.10;11.10;;;;;;;1.89;60.75;102539.17;106896;1274;22536;-49
2023/02/06 03:25:50;;;;;;;14.70;11.20;;;;;;;1.90;60.35;102535.77;106761;1277;22646;-51
2023/02/06 03:28:24;;;;;;;15.30;10.90;;;;;;;1.90;60.28;102533.39;106844;1274;22560;-50
2023/02/06 03:30:54;;;;;;;13.70;10.10;;;;;;;1.91;59.86;102533.25;106799;1272;25322;-51
2023/02/06 03:33:39;;;;;;;13.90;10.70;;;;;;;1.88;59.78;102536.56;106032;1272;1003298;-51
2023/02/06 03:36:10;;;;;;;14.60;10.90;;;;;;;1.86;59.61;102538.34;105953;1273;1003107;-51
2023/02/06 03:38:41;;;;;;;16.10;11.10;;;;;;;1.84;59.76;102541.34;106613;1270;25413;-51
2023/02/06 03:41:16;;;;;;;14.70;10.40;;;;;;;1.83;59.44;102544.73;106022;1272;1003486;-51
2023/02/06 03:43:46;;;;;;;14.10;10.60;;;;;;;1.82;59.78;102548.11;106951;1270;22540;-50
2023/02/06 03:46:14;;;;;;;15.00;10.90;;;;;;;1.82;59.62;102547.59;107008;1274;25329;-51
2023/02/06 03:48:48;;;;;;;15.20;10.80;;;;;;;1.80;59.43;102549.73;106061;1273;1003244;-50
2023/02/06 03:51:30;;;;;;;13.60;10.40;;;;;;;1.80;59.49;102550.28;106871;1275;24235;-50
2023/02/06 03:53:59;;;;;;;14.70;10.90;;;;;;;1.80;59.05;102543.43;106909;1270;24004;-52
2023/02/06 03:56:43;;;;;;;14.30;9.90;;;;;;;1.78;59.23;102543.52;106376;1276;25441;-49
2023/02/06 03:59:11;;;;;;;13.80;10.50;;;;;;;1.74;59.17;102545.73;106564;1273;24210;-49
2023/02/06 04:01:45;;;;;;;14.50;10.60;;;;;;;1.72;59.20;102548.56;105689;1274;1003591;-51
2023/02/06 04:04:17;;;;;;;14.30;10.40;;;;;;;1.72;59.27;102548.21;106794;1269;23899;-50
2023/02/06 04:06:46;;;;;;;14.60;9.90;;;;;;;1.71;59.14;102549.36;106796;1274;25354;-49
2023/02/06 04:09:15;;;;;;;14.20;10.20;;;;;;;1.70;58.90;102544.66;106712;1271;25354;-51
2023/02/06 04:11:43;;;;;;;11.90;9.60;;;;;;;1.67;58.94;102539.60;106156;1275;1003598;-51
2023/02/06 04:14:12;;;;;;;12.50;9.60;;;;;;;1.65;59.00;102539.17;106828;1275;25336;-51
2023/02/06 04:16:41;;;;;;;12.50;10.00;;;;;;;1.64;58.80;102537.97;106162;1269;1003310;-50
2023/02/06 04:19:09;;;;;;;12.80;9.90;;;;;;;1.65;59.22;102544.66;106775;1269;25500;-51
2023/02/06 04:21:38;;;;;;;12.90;10.20;;;;;;;1.64;59.30;102550.45;106889;1270;25343;-50
2023/02/06 04:24:07;;;;;;;15.60;10.60;;;;;;;1.64;59.27;102554.73;106078;1269;1002978;-50
2023/02/06 04:26:36;;;;;;;14.30;10.60;;;;;;;1.65;59.44;102558.70;106762;1271;25343;-50
2023/02/06 04:29:05;;;;;;;13.30;9.60;;;;;;;1.65;58.94;102555.63;106615;1274;25393;-51
2023/02/06 04:31:33;;;;;;;14.00;9.80;;;;;;;1.64;58.96;102560.40;105865;1269;1002842;-51
2023/02/06 04:34:02;;;;;;;12.00;10.10;;;;;;;1.65;59.07;102562.45;106730;1269;25382;-51
2023/02/06 04:36:32;;;;;;;13.60;9.80;;;;;;;1.64;59.16;102564.13;106794;1272;25347;-50
2023/02/06 04:39:00;;;;;;;13.00;9.60;;;;;;;1.63;59.09;102568.52;106176;1275;1003020;-49
2023/02/06 04:41:30;;;;;;;14.10;9.70;;;;;;;1.62;59.05;102574.16;106797;1273;22540;-51
2023/02/06 04:43:59;;;;;;;11.90;9.50;;;;;;;1.62;59.12;102578.06;106833;1273;25344;-51
2023/02/06 04:46:27;;;;;;;15.10;10.20;;;;;;;1.61;59.02;102580.76;106132;1270;1003500;-51
2023/02/06 04:48:56;;;;;;;14.40;9.80;;;;;;;1.60;59.35;102579.20;106722;1276;24250;-51
2023/02/06 04:51:25;;;;;;;14.10;10.00;;;;;;;1.62;59.21;102583.20;106722;1277;25321;-51
2023/02/06 04:53:53;;;;;;;12.20;9.50;;;;;;;1.62;59.23;102583.58;105745;1270;1003349;-51
2023/02/06 04:56:24;;;;;;;11.40;8.80;;;;;;;1.63;58.84;102586.86;106665;1274;25466;-51
2023/02/06 04:58:53;;;;;;;14.80;9.60;;;;;;;1.64;59.16;102589.30;105943;1270;1015533;-51
2023/02/06 05:01:21;;;;;;;12.30;9.50;;;;;;;1.64;58.74;102583.66;106872;1271;22779;-49
2023/02/06 05:03:50;;;;;;;11.70;9.20;;;;;;;1.65;58.53;102586.41;106884;1275;25347;-50
2023/02/06 05:06:18;;;;;;;13.70;9.30;;;;;;;1.66;58.74;102591.58;106085;1270;1002847;-50
2023/02/06 05:08:47;;;;;;;12.50;9.30;;;;;;;1.69;58.66;102597.49;106923;1274;25347;-50
2023/02/06 05:11:15;;;;;;;13.00;9.10;;;;;;;1.69;58.06;102595.29;106832;1269;25320;-51
2023/02/06 05:13:44;;;;;;;12.40;9.00;;;;;;;1.69;58.02;102595.10;106235;1269;1003392;-51
2023/02/06 05:16:13;;;;;;;11.30;8.50;;;;;;;1.69;57.97;102605.02;106672;1275;22548;-50
2023/02/06 05:18:45;;;;;;;13.40;9.80;;;;;;;1.67;57.74;102606.16;106463;1275;22686;-51
2023/02/06 05:21:14;;;;;;;11.00;8.70;;;;;;;1.67;57.76;102610.27;106712;1273;25334;-50
2023/02/06 05:23:43;;;;;;;11.00;7.60;;;;;;;1.68;57.65;102612.01;106223;1270;1003131;-50
2023/02/06 05:26:11;;;;;;;10.60;8.60;;;;;;;1.68;57.75;102615.23;106829;1276;25336;-50
2023/02/06 05:28:40;;;;;;;10.80;8.80;;;;;;;1.67;57.23;102618.80;106774;1275;25447;-50
2023/02/06 05:31:09;;;;;;;11.70;9.20;;;;;;;1.66;57.15;102620.13;106826;1269;25927;-51
2023/02/06 05:33:38;;;;;;;10.40;8.60;;;;;;;1.64;57.11;102621.61;106822;1270;22543;-50
2023/02/06 05:36:07;;;;;;;11.10;8.60;;;;;;;1.64;57.17;102633.27;106808;1273;25389;-52
2023/02/06 05:38:36;;;;;;;11.60;8.80;;;;;;;1.64;57.00;102632.06;106023;1270;1003816;-50
2023/02/06 05:41:04;;;;;;;11.60;8.60;;;;;;;1.65;57.07;102630.71;105786;1273;1003698;-51
2023/02/06 05:43:33;;;;;;;12.80;9.60;;;;;;;1.66;57.40;102631.61;106719;1274;25364;-51
2023/02/06 05:46:01;;;;;;;12.90;9.00;;;;;;;1.69;57.35;102630.67;106397;1269;25319;-51
2023/02/06 05:48:33;;;;;;;14.40;10.50;;;;;;;1.70;57.27;102630.74;106810;1269;23158;-49
2023/02/06 05:51:01;;;;;;;13.10;10.10;;;;;;;1.72;57.55;102627.08;106835;1271;25309;-50
2023/02/06 05:53:30;;;;;;;11.80;9.00;;;;;;;1.74;57.69;102633.46;106709;1276;25368;-49
2023/02/06 05:55:59;;;;;;;14.10;10.50;;;;;;;1.75;57.75;102635.42;106789;1270;22524;-51
2023/02/06 05:58:29;;;;;;;15.50;10.50;;;;;;;1.76;57.61;102641.46;106784;1270;25346;-50
2023/02/06 06:00:57;;;;;;;14.70;10.20;;;;;;;1.77;57.57;102638.73;106069;1274;1003052;-50
2023/02/06 06:03:26;;;;;;;13.90;10.00;;;;;;;1.77;57.79;102638.59;106727;1273;26516;-50
2023/02/06 06:05:54;;;;;;;14.80;9.90;;;;;;;1.78;57.62;102639.83;106801;1277;25447;-50
2023/02/06 06:08:23;;;;;;;15.60;10.70;;;;;;;1.77;57.69;102642.34;106820;1270;24372;-50
2023/02/06 06:10:51;;;;;;;14.80;10.50;;;;;;;1.76;57.86;102639.39;106805;1269;25296;-50
2023/02/06 06:13:20;;;;;;;15.00;11.30;;;;;;;1.75;57.76;102644.14;105960;1276;1002974;-50
2023/02/06 06:15:52;;;;;;;15.50;10.70;;;;;;;1.73;57.70;102648.52;106069;1276;1002865;-50
2023/02/06 06:18:21;;;;;;;16.30;10.00;;;;;;;1.75;57.79;102647.38;106788;1276;25357;-50
2023/02/06 06:20:50;;;;;;;13.30;9.60;;;;;;;1.75;57.77;102653.25;106131;1270;1003671;-51
2023/02/06 06:23:19;;;;;;;15.70;11.40;;;;;;;1.77;57.83;102655.18;106744;1269;25328;-50
2023/02/06 06:25:48;;;;;;;13.90;10.50;;;;;;;1.79;58.05;102655.29;106719;1276;25332;-50
2023/02/06 06:28:17;;;;;;;15.50;11.40;;;;;;;1.80;58.07;102648.63;106601;1270;25346;-50
2023/02/06 06:30:45;;;;;;;14.70;10.20;;;;;;;1.81;57.86;102649.54;106005;1270;1002908;-50
2023/02/06 06:33:15;;;;;;;15.90;11.30;;;;;;;1.83;57.69;102652.55;106800;1277;22768;-50
2023/02/06 06:35:44;;;;;;;13.60;10.50;;;;;;;1.84;58.15;102651.71;106176;1273;1003569;-50
2023/02/06 06:38:13;;;;;;;14.40;10.70;;;;;;;1.85;58.22;102646.96;106876;1270;25347;-50
2023/02/06 06:40:41;;;;;;;16.60;11.50;;;;;;;1.85;58.46;102645.79;106185;1273;1003754;-50
2023/02/06 06:43:10;;;;;;;15.20;11.30;;;;;;;1.86;58.15;102648.23;106103;1273;1003641;-50
2023/02/06 06:45:38;;;;;;;13.50;10.70;;;;;;;1.88;58.27;102653.27;106775;1273;23252;-50
2023/02/06 06:48:08;;;;;;;13.80;11.00;;;;;;;1.89;58.32;102650.91;106057;1270;1003441;-50
2023/02/06 06:50:36;;;;;;;15.30;11.00;;;;;;;1.90;58.39;102647.54;106760;1276;23919;-49
2023/02/06 06:53:05;;;;;;;16.30;11.20;;;;;;;1.93;58.48;102645.13;106686;1269;24331;-50
2023/02/06 06:55:34;;;;;;;14.20;11.30;;;;;;;1.97;58.58;102647.87;106866;1270;25422;-50
2023/02/06 06:58:03;;;;;;;15.50;11.80;;;;;;;2.00;58.54;102644.91;106794;1270;25341;-49
2023/02/06 07:00:31;;;;;;;15.90;11.50;;;;;;;2.02;58.29;102645.16;106783;1254;25309;-49
2023/02/06 07:03:00;;;;;;;14.80;11.40;;;;;;;2.02;58.01;102651.16;106869;1269;23188;-50
2023/02/06 07:05:28;;;;;;;14.80;11.50;;;;;;;2.04;57.87;102648.67;105996;1254;1003358;-50
2023/02/06 07:07:57;;;;;;;14.30;10.70;;;;;;;2.06;57.84;102650.63;106059;1273;1003275;-49
2023/02/06 07:10:26;;;;;;;15.70;11.90;;;;;;;2.07;58.02;102656.35;105995;1270;1003457;-49
2023/02/06 07:12:55;;;;;;;18.00;11.90;;;;;;;2.10;58.10;102658.53;106792;1270;25382;-49
2023/02/06 07:15:24;;;;;;;17.60;12.10;;;;;;;2.13;58.37;102656.11;106789;1270;22579;-49
2023/02/06 07:17:55;;;;;;;17.40;13.40;;;;;;;2.15;58.38;102663.20;106699;1270;22536;-50
2023/02/06 07:20:23;;;;;;;17.10;12.30;;;;;;;2.16;58.20;102661.54;106018;1270;1003527;-50
2023/02/06 07:22:52;;;;;;;17.30;12.70;;;;;;;2.17;57.93;102663.42;106878;1271;25345;-50
2023/02/06 07:25:20;;;;;;;15.90;12.30;;;;;;;2.18;58.10;102662.09;106691;1270;22526;-49
2023/02/06 07:27:49;;;;;;;16.00;12.20;;;;;;;2.19;58.08;102661.48;106805;1270;25322;-50
2023/02/06 07:30:18;;;;;;;16.70;12.60;;;;;;;2.21;58.01;102666.85;106883;1270;25482;-50
2023/02/06 07:32:47;;;;;;;18.00;12.30;;;;;;;2.22;57.93;102665.89;106838;1270;24203;-51
2023/02/06 07:35:16;;;;;;;19.40;13.10;;;;;;;2.24;57.91;102667.17;106763;1273;25332;-51
2023/02/06 07:37:44;;;;;;;18.80;12.60;;;;;;;2.26;57.81;102665.54;106616;1270;25312;-50
2023/02/06 07:40:13;;;;;;;17.70;13.30;;;;;;;2.28;57.32;102657.91;106736;1270;25335;-51
2023/02/06 07:42:41;;;;;;;18.20;12.70;;;;;;;2.30;56.89;102667.25;106038;1270;1002906;-51
2023/02/06 07:45:17;;;;;;;15.40;12.10;;;;;;;2.31;57.17;102658.20;106828;1270;25363;-51
2023/02/06 07:47:46;;;;;;;17.70;12.80;;;;;;;2.32;56.92;102663.93;106776;1276;25516;-51
2023/02/06 07:50:14;;;;;;;15.70;11.80;;;;;;;2.35;57.15;102662.15;106823;1270;25322;-51
2023/02/06 07:52:44;;;;;;;17.50;11.50;;;;;;;2.37;57.10;102659.88;106695;1273;25347;-50
2023/02/06 07:55:12;;;;;;;16.20;12.60;;;;;;;2.41;57.15;102659.00;106808;1269;24325;-51
2023/02/06 07:57:42;;;;;;;20.30;14.70;;;;;;;2.44;56.65;102659.10;106880;1269;25322;-51
2023/02/06 08:00:11;;;;;;;17.60;13.60;;;;;;;2.45;56.82;102659.32;106594;1270;25318;-51
2023/02/06 08:02:39;;;;;;;16.30;11.70;;;;;;;2.47;56.97;102657.86;106672;1276;24286;-51
2023/02/06 08:05:08;;;;;;;16.50;11.60;;;;;;;2.49;56.54;102658.80;105906;1276;1003568;-51
2023/02/06 08:07:36;;;;;;;15.40;10.70;;;;;;;2.52;56.06;102653.77;105899;1270;1002947;-50
2023/02/06 08:10:06;;;;;;;16.30;10.70;;;;;;;2.53;55.48;102654.84;105876;1273;1004032;-50
2023/02/06 08:12:34;;;;;;;28.00;18.90;;;;;;;2.52;55.60;102650.39;105502;1273;1003061;-50
2023/02/06 08:15:03;;;;;;;17.40;13.20;;;;;;;2.54;55.46;102654.91;106647;1270;25442;-49
2023/02/06 08:17:32;;;;;;;16.50;11.70;;;;;;;2.55;55.50;102657.68;105574;1277;1002956;-50
2023/02/06 08:20:00;;;;;;;18.40;11.90;;;;;;;2.59;55.68;102658.56;106572;1269;25390;-50
2023/02/06 08:22:30;;;;;;;20.60;13.10;;;;;;;2.61;55.41;102654.49;106759;1270;25334;-49
2023/02/06 08:24:58;;;;;;;18.50;12.60;;;;;;;2.61;55.62;102653.84;106705;1272;25322;-50
2023/02/06 08:27:27;;;;;;;19.70;13.90;;;;;;;2.64;55.66;102662.51;106162;1270;1002890;-49
2023/02/06 08:29:58;;;;;;;17.90;13.00;;;;;;;2.67;55.90;102663.00;106843;1269;25422;-50
2023/02/06 08:32:31;;;;;;;19.00;12.60;;;;;;;2.72;56.18;102664.21;106723;1258;22521;-51
2023/02/06 08:34:59;;;;;;;19.10;12.80;;;;;;;2.78;56.05;102663.06;106952;1269;25560;-50
2023/02/06 08:37:28;;;;;;;19.20;13.20;;;;;;;2.82;55.69;102662.40;105965;1270;1003008;-51
2023/02/06 08:39:57;;;;;;;17.70;12.80;;;;;;;2.86;55.73;102665.84;106505;1269;25428;-50
2023/02/06 08:42:25;;;;;;;19.10;12.70;;;;;;;2.91;55.42;102669.27;106307;1276;25312;-50
2023/02/06 08:44:54;;;;;;;16.70;11.50;;;;;;;2.94;54.91;102671.30;106732;1269;25482;-51
2023/02/06 08:47:22;;;;;;;15.80;11.50;;;;;;;2.96;54.43;102673.23;105653;1276;1003394;-51
2023/02/06 08:49:51;;;;;;;15.50;10.30;;;;;;;2.97;54.37;102672.75;106412;1273;25452;-50
2023/02/06 08:52:21;;;;;;;25.00;16.50;;;;;;;2.97;54.76;102675.02;106614;1269;25329;-50
2023/02/06 08:54:50;;;;;;;16.40;11.60;;;;;;;2.99;54.30;102674.55;106348;1270;25240;-51
2023/02/06 08:57:19;;;;;;;17.90;12.30;;;;;;;3.02;54.64;102673.81;105808;1269;1003266;-50
2023/02/06 08:59:48;;;;;;;13.40;10.00;;;;;;;3.05;54.44;102678.06;106855;1269;25333;-50
2023/02/06 09:02:17;;;;;;;13.50;9.60;;;;;;;3.07;53.64;102679.34;106860;1274;23133;-51
2023/02/06 09:04:45;;;;;;;15.20;9.30;;;;;;;3.05;53.41;102682.02;106100;1270;1003653;-50
2023/02/06 09:07:14;;;;;;;13.30;9.00;;;;;;;3.03;53.64;102677.48;106140;1270;1003520;-50
2023/02/06 09:09:44;;;;;;;13.00;9.00;;;;;;;3.02;53.34;102676.39;106842;1270;22615;-51
2023/02/06 09:12:14;;;;;;;11.50;9.10;;;;;;;3.00;53.25;102678.73;106058;1276;1003667;-49
2023/02/06 09:14:43;;;;;;;10.90;8.30;;;;;;;2.98;53.05;102679.50;105955;1277;1003280;-50
2023/02/06 09:17:11;;;;;;;9.70;7.30;;;;;;;2.98;52.61;102675.71;105977;1276;1002947;-49
2023/02/06 09:19:40;;;;;;;10.50;7.60;;;;;;;3.02;53.29;102670.23;106811;1269;25328;-50
2023/02/06 09:22:08;;;;;;;11.40;8.40;;;;;;;3.10;52.99;102667.29;106621;1273;22534;-50
2023/02/06 09:24:37;;;;;;;11.40;7.70;;;;;;;3.15;51.97;102661.80;106301;1270;25363;-50
2023/02/06 09:27:06;;;;;;;11.60;7.70;;;;;;;3.13;51.52;102663.81;106515;1269;25329;-50
2023/02/06 09:29:35;;;;;;;10.30;7.70;;;;;;;3.11;51.57;102663.56;106948;1262;22529;-49
2023/02/06 09:32:03;;;;;;;11.50;7.50;;;;;;;3.09;51.44;102660.90;106897;1271;25385;-49
2023/02/06 09:34:32;;;;;;;10.20;7.70;;;;;;;3.10;51.62;102666.59;106868;1270;25332;-50
2023/02/06 09:37:01;;;;;;;17.60;10.10;;;;;;;3.13;52.75;102663.98;107074;1262;25333;-50
2023/02/06 09:39:31;;;;;;;13.30;9.60;;;;;;;3.19;53.22;102665.39;106783;1270;25230;-49
2023/02/06 09:42:05;;;;;;;13.90;9.60;;;;;;;3.24;53.25;102660.49;106050;1254;1003530;-49
2023/02/06 09:44:40;;;;;;;14.80;9.50;;;;;;;3.30;52.59;102659.52;106630;1272;25424;-50
2023/02/06 09:47:34;;;;;;;13.70;9.90;;;;;;;3.33;52.53;102658.39;106731;1270;22516;-50
2023/02/06 09:50:48;;;;;;;14.70;8.80;;;;;;;3.36;52.64;102655.07;106919;1273;24210;-51
2023/02/06 09:53:44;;;;;;;15.00;9.00;;;;;;;3.37;51.37;102657.85;106496;1277;22547;-50
2023/02/06 09:56:56;;;;;;;13.60;9.10;;;;;;;3.35;51.37;102650.91;105584;1277;1003333;-51
2023/02/06 09:59:35;;;;;;;12.40;8.80;;;;;;;3.40;51.79;102660.70;106214;1281;25398;-51
2023/02/06 10:02:09;;;;;;;11.60;8.80;;;;;;;3.47;52.28;102658.77;106383;1276;22552;-50
2023/02/06 10:04:49;;;;;;;12.40;9.10;;;;;;;3.48;51.93;102658.94;105505;1284;1002374;-51
2023/02/06 10:07:45;;;;;;;12.90;9.20;;;;;;;3.45;52.04;102651.13;105696;1279;1003658;-51
2023/02/06 10:10:37;;;;;;;13.40;9.50;;;;;;;3.44;51.27;102646.45;106446;1277;26632;-50
2023/02/06 10:13:29;;;;;;;12.70;8.30;;;;;;;3.46;51.09;102647.55;106601;1270;22571;-50
2023/02/06 10:16:03;;;;;;;;;;;;;;;3.49;51.01;102641.98;106334;1277;25327;-49
2023/02/06 10:18:36;;;;;;;9.90;7.40;;;;;;;3.53;50.92;102640.95;106363;1280;22555;-51
2023/02/06 10:21:06;;;;;;;14.80;9.20;;;;;;;3.54;50.40;102641.00;106299;1278;24220;-51
2023/02/06 10:23:42;;;;;;;13.40;8.60;;;;;;;3.58;50.12;102644.89;106391;1280;22550;-49
2023/02/06 10:26:17;;;;;;;15.80;8.20;;;;;;;3.59;50.44;102647.52;106530;1277;22535;-52
2023/02/06 10:28:57;;;;;;;11.70;8.50;;;;;;;3.63;50.90;102647.31;105747;1276;1003230;-51
2023/02/06 10:31:43;;;;;;;9.90;7.40;;;;;;;3.70;51.07;102649.14;106693;1269;25358;-50
2023/02/06 10:34:19;;;;;;;11.80;8.40;;;;;;;3.73;51.06;102658.17;106826;1269;25353;-50
2023/02/06 10:37:24;;;;;;;11.80;7.90;;;;;;;3.75;51.43;102662.71;107000;1269;25358;-50
2023/02/06 10:40:09;;;;;;;12.70;9.10;;;;;;;3.73;51.17;102661.28;106941;1265;25329;-50
2023/02/06 10:42:51;;;;;;;12.90;8.00;;;;;;;3.69;51.26;102661.98;106970;1270;24231;-50
2023/02/06 10:45:29;;;;;;;9.90;7.20;;;;;;;3.67;51.37;102665.85;106741;1277;22592;-49
2023/02/06 10:48:00;;;;;;;9.50;7.50;;;;;;;3.67;50.23;102668.77;106297;1269;1003566;-49
2023/02/06 10:50:32;;;;;;;12.40;9.00;;;;;;;3.67;50.79;102668.42;107042;1264;25311;-49
2023/02/06 10:53:12;;;;;;;10.90;8.30;;;;;;;3.73;51.25;102669.86;106037;1269;1002886;-50
2023/02/06 10:55:55;;;;;;;10.90;7.90;;;;;;;3.78;50.91;102674.84;106971;1270;25347;-49
2023/02/06 10:58:28;;;;;;;11.90;7.10;;;;;;;3.78;50.22;102671.58;105926;1265;1003597;-49
2023/02/06 11:00:56;;;;;;;12.30;8.10;;;;;;;3.73;49.99;102675.86;106998;1269;25278;-49
2023/02/06 11:03:30;;;;;;;10.00;7.40;;;;;;;3.66;50.28;102671.49;107027;1269;25419;-49
2023/02/06 11:05:59;;;;;;;9.20;6.70;;;;;;;3.66;50.87;102670.42;106937;1269;22527;-50
2023/02/06 11:08:34;;;;;;;9.80;7.10;;;;;;;3.71;51.09;102672.71;106606;1270;22579;-50
2023/02/06 11:11:23;;;;;;;10.90;7.90;;;;;;;3.77;51.10;102680.45;106242;1273;22537;-50
2023/02/06 11:13:54;;;;;;;10.50;7.40;;;;;;;3.83;51.47;102683.08;106561;1269;22683;-50
2023/02/06 11:16:25;;;;;;;11.30;7.70;;;;;;;3.89;51.16;102686.58;105582;1273;1003048;-50
2023/02/06 11:18:55;;;;;;;10.20;7.40;;;;;;;3.93;50.47;102689.48;106706;1270;22547;-51
2023/02/06 11:21:47;;;;;;;12.40;8.80;;;;;;;3.95;49.92;102687.30;106797;1270;23136;-50
2023/02/06 11:24:17;;;;;;;9.60;7.30;;;;;;;3.95;49.70;102680.60;106105;1269;1003654;-50
2023/02/06 11:26:54;;;;;;;9.00;6.50;;;;;;;3.95;49.71;102678.55;106107;1269;1003091;-51
2023/02/06 11:29:24;;;;;;;9.40;7.60;;;;;;;3.97;50.47;102675.02;106778;1269;25295;-51
2023/02/06 11:32:00;;;;;;;10.60;7.60;;;;;;;4.01;50.95;102665.70;105921;1269;1003443;-51
2023/02/06 11:35:04;;;;;;;8.70;7.10;;;;;;;4.01;50.12;102664.34;106140;1269;1002676;-50